sensor_id;sensor_type;location;lat;lon;timestamp;temperature;humidity
2363;DHT22;64265;51.664;7.626;2023-08-17T00:01:49;24.30;99.90
2363;DHT22;64265;51.664;7.626;2023-08-17T00:04:16;24.30;99.90
2363;DHT22;64265;51.664;7.626;2023-08-17T00:06:47;24.30;99.90
2363;DHT22;64265;51.664;7.626;2023-08-17T00:09:21;24.30;99.90
2363;DHT22;64265;51.664;7.626;2023-08-17T00:11:49;24.30;99.90
2363;DHT22;64265;51.664;7.626;2023-08-17T00:14:16;24.30;99.90
2363;DHT22;64265;51.664;7.626;2023-08-17T00:16:43;24.30;99.90
2363;DHT22;64265;51.664;7.626;2023-08-17T00:19:10;24.30;99.90
2363;DHT22;64265;51.664;7.626;2023-08-17T00:21:37;24.20;99.90
2363;DHT22;64265;51.664;7.626;2023-08-17T00:24:05;24.20;99.90
2363;DHT22;64265;51.664;7.626;2023-08-17T00:26:32;24.20;99.90
2363;DHT22;64265;51.664;7.626;2023-08-17T00:28:59;24.20;99.90
2363;DHT22;64265;51.664;7.626;2023-08-17T00:31:26;24.20;99.90
2363;DHT22;64265;51.664;7.626;2023-08-17T00:33:53;24.20;99.90
2363;DHT22;64265;51.664;7.626;2023-08-17T00:36:20;24.20;99.90
2363;DHT22;64265;51.664;7.626;2023-08-17T00:38:47;24.20;99.90
2363;DHT22;64265;51.664;7.626;2023-08-17T00:41:15;24.20;99.90
2363;DHT22;64265;51.664;7.626;2023-08-17T00:43:42;24.20;99.90
2363;DHT22;64265;51.664;7.626;2023-08-17T00:46:09;24.20;99.90
2363;DHT22;64265;51.664;7.626;2023-08-17T00:48:36;24.20;99.90
2363;DHT22;64265;51.664;7.626;2023-08-17T00:51:04;24.10;99.90
2363;DHT22;64265;51.664;7.626;2023-08-17T00:53:32;24.10;99.90
2363;DHT22;64265;51.664;7.626;2023-08-17T00:56:03;24.20;99.90
2363;DHT22;64265;51.664;7.626;2023-08-17T00:58:33;24.10;99.90
2363;DHT22;64265;51.664;7.626;2023-08-17T01:01:00;24.10;99.90
2363;DHT22;64265;51.664;7.626;2023-08-17T01:03:28;24.10;99.90
2363;DHT22;64265;51.664;7.626;2023-08-17T01:05:56;24.10;99.90
2363;DHT22;64265;51.664;7.626;2023-08-17T01:08:29;24.10;99.90
2363;DHT22;64265;51.664;7.626;2023-08-17T01:11:02;24.10;99.90
2363;DHT22;64265;51.664;7.626;2023-08-17T01:13:37;24.10;99.90
2363;DHT22;64265;51.664;7.626;2023-08-17T01:16:11;24.10;99.90
2363;DHT22;64265;51.664;7.626;2023-08-17T01:18:40;24.00;99.90
2363;DHT22;64265;51.664;7.626;2023-08-17T01:21:10;24.00;99.90
2363;DHT22;64265;51.664;7.626;2023-08-17T01:23:38;24.00;99.90
2363;DHT22;64265;51.664;7.626;2023-08-17T01:26:05;24.00;99.90
2363;DHT22;64265;51.664;7.626;2023-08-17T01:28:32;24.10;99.90
2363;DHT22;64265;51.664;7.626;2023-08-17T01:31:03;24.10;99.90
2363;DHT22;64265;51.664;7.626;2023-08-17T01:33:36;24.00;99.90
2363;DHT22;64265;51.664;7.626;2023-08-17T01:36:07;24.00;99.90
2363;DHT22;64265;51.664;7.626;2023-08-17T01:38:40;24.00;99.90
2363;DHT22;64265;51.664;7.626;2023-08-17T01:41:10;24.00;99.90
2363;DHT22;64265;51.664;7.626;2023-08-17T01:43:42;24.00;99.90
2363;DHT22;64265;51.664;7.626;2023-08-17T01:46:15;24.00;99.90
2363;DHT22;64265;51.664;7.626;2023-08-17T01:48:41;24.00;99.90
2363;DHT22;64265;51.664;7.626;2023-08-17T01:51:10;24.00;99.90
2363;DHT22;64265;51.664;7.626;2023-08-17T01:53:38;24.00;99.90
2363;DHT22;64265;51.664;7.626;2023-08-17T01:56:05;24.00;99.90
2363;DHT22;64265;51.664;7.626;2023-08-17T01:58:33;24.00;99.90
2363;DHT22;64265;51.664;7.626;2023-08-17T02:01:01;24.00;99.90
2363;DHT22;64265;51.664;7.626;2023-08-17T02:03:27;24.00;99.90
2363;DHT22;64265;51.664;7.626;2023-08-17T02:05:56;23.90;99.90
2363;DHT22;64265;51.664;7.626;2023-08-17T02:08:23;23.90;99.90
2363;DHT22;64265;51.664;7.626;2023-08-17T02:10:52;23.90;99.90
2363;DHT22;64265;51.664;7.626;2023-08-17T02:13:19;23.90;99.90
2363;DHT22;64265;51.664;7.626;2023-08-17T02:15:46;23.90;99.90
2363;DHT22;64265;51.664;7.626;2023-08-17T02:18:14;23.90;99.90
2363;DHT22;64265;51.664;7.626;2023-08-17T02:20:41;23.90;99.90
2363;DHT22;64265;51.664;7.626;2023-08-17T02:23:08;23.90;99.90
2363;DHT22;64265;51.664;7.626;2023-08-17T02:25:37;23.90;99.90
2363;DHT22;64265;51.664;7.626;2023-08-17T02:28:06;23.90;99.90
2363;DHT22;64265;51.664;7.626;2023-08-17T02:30:33;23.90;99.90
2363;DHT22;64265;51.664;7.626;2023-08-17T02:33:00;23.90;99.90
2363;DHT22;64265;51.664;7.626;2023-08-17T02:35:30;23.90;99.90
2363;DHT22;64265;51.664;7.626;2023-08-17T02:37:56;23.90;99.90
2363;DHT22;64265;51.664;7.626;2023-08-17T02:40:23;23.90;99.90
2363;DHT22;64265;51.664;7.626;2023-08-17T02:42:50;23.90;99.90
2363;DHT22;64265;51.664;7.626;2023-08-17T02:45:18;23.90;99.90
2363;DHT22;64265;51.664;7.626;2023-08-17T02:47:45;23.90;99.90
2363;DHT22;64265;51.664;7.626;2023-08-17T02:50:11;23.90;99.90
2363;DHT22;64265;51.664;7.626;2023-08-17T02:52:38;23.80;99.90
2363;DHT22;64265;51.664;7.626;2023-08-17T02:55:06;23.90;99.90
2363;DHT22;64265;51.664;7.626;2023-08-17T02:57:33;23.80;99.90
2363;DHT22;64265;51.664;7.626;2023-08-17T02:59:59;23.80;99.90
2363;DHT22;64265;51.664;7.626;2023-08-17T03:02:27;23.80;99.90
2363;DHT22;64265;51.664;7.626;2023-08-17T03:04:55;23.80;99.90
2363;DHT22;64265;51.664;7.626;2023-08-17T03:07:21;23.80;99.90
2363;DHT22;64265;51.664;7.626;2023-08-17T03:09:48;23.80;99.90
2363;DHT22;64265;51.664;7.626;2023-08-17T03:12:15;23.80;99.90
2363;DHT22;64265;51.664;7.626;2023-08-17T03:14:41;23.80;99.90
2363;DHT22;64265;51.664;7.626;2023-08-17T03:17:08;23.80;99.90
2363;DHT22;64265;51.664;7.626;2023-08-17T03:19:36;23.80;99.90
2363;DHT22;64265;51.664;7.626;2023-08-17T03:22:03;23.80;99.90
2363;DHT22;64265;51.664;7.626;2023-08-17T03:24:30;23.80;99.90
2363;DHT22;64265;51.664;7.626;2023-08-17T03:26:57;23.80;99.90
2363;DHT22;64265;51.664;7.626;2023-08-17T03:29:23;23.80;99.90
2363;DHT22;64265;51.664;7.626;2023-08-17T03:31:51;23.80;99.90
2363;DHT22;64265;51.664;7.626;2023-08-17T03:34:18;23.80;99.90
2363;DHT22;64265;51.664;7.626;2023-08-17T03:36:46;23.80;99.90
2363;DHT22;64265;51.664;7.626;2023-08-17T03:39:13;23.70;99.90
2363;DHT22;64265;51.664;7.626;2023-08-17T03:41:41;23.80;99.90
2363;DHT22;64265;51.664;7.626;2023-08-17T03:44:07;23.80;99.90
2363;DHT22;64265;51.664;7.626;2023-08-17T03:46:35;23.70;99.90
2363;DHT22;64265;51.664;7.626;2023-08-17T03:49:02;23.80;99.90
2363;DHT22;64265;51.664;7.626;2023-08-17T03:51:28;23.70;99.90
2363;DHT22;64265;51.664;7.626;2023-08-17T03:53:56;23.70;99.90
2363;DHT22;64265;51.664;7.626;2023-08-17T03:56:23;23.70;99.90
2363;DHT22;64265;51.664;7.626;2023-08-17T03:58:50;23.70;99.90
2363;DHT22;64265;51.664;7.626;2023-08-17T04:01:16;23.70;99.90
2363;DHT22;64265;51.664;7.626;2023-08-17T04:03:43;23.70;99.90
2363;DHT22;64265;51.664;7.626;2023-08-17T04:06:10;23.70;99.90
2363;DHT22;64265;51.664;7.626;2023-08-17T04:08:37;23.70;99.90
2363;DHT22;64265;51.664;7.626;2023-08-17T04:11:05;23.70;99.90
2363;DHT22;64265;51.664;7.626;2023-08-17T04:13:32;23.70;99.90
2363;DHT22;64265;51.664;7.626;2023-08-17T04:15:59;23.70;99.90
2363;DHT22;64265;51.664;7.626;2023-08-17T04:18:25;23.70;99.90
2363;DHT22;64265;51.664;7.626;2023-08-17T04:20:52;23.60;99.90
2363;DHT22;64265;51.664;7.626;2023-08-17T04:23:19;23.70;99.90
2363;DHT22;64265;51.664;7.626;2023-08-17T04:25:47;23.70;99.90
2363;DHT22;64265;51.664;7.626;2023-08-17T04:28:15;23.70;99.90
2363;DHT22;64265;51.664;7.626;2023-08-17T04:30:42;23.60;99.90
2363;DHT22;64265;51.664;7.626;2023-08-17T04:33:09;23.60;99.90
2363;DHT22;64265;51.664;7.626;2023-08-17T04:35:36;23.60;99.90
2363;DHT22;64265;51.664;7.626;2023-08-17T04:38:03;23.70;99.90
2363;DHT22;64265;51.664;7.626;2023-08-17T04:40:29;23.60;99.90
2363;DHT22;64265;51.664;7.626;2023-08-17T04:42:56;23.60;99.90
2363;DHT22;64265;51.664;7.626;2023-08-17T04:45:24;23.60;99.90
2363;DHT22;64265;51.664;7.626;2023-08-17T04:47:51;23.60;99.90
2363;DHT22;64265;51.664;7.626;2023-08-17T04:50:18;23.60;99.90
2363;DHT22;64265;51.664;7.626;2023-08-17T04:52:45;23.60;99.90
2363;DHT22;64265;51.664;7.626;2023-08-17T04:55:13;23.60;99.90
2363;DHT22;64265;51.664;7.626;2023-08-17T04:57:40;23.60;99.90
2363;DHT22;64265;51.664;7.626;2023-08-17T05:00:08;23.60;99.90
2363;DHT22;64265;51.664;7.626;2023-08-17T05:02:36;23.60;99.90
2363;DHT22;64265;51.664;7.626;2023-08-17T05:05:04;23.60;99.90
2363;DHT22;64265;51.664;7.626;2023-08-17T05:07:32;23.60;99.90
2363;DHT22;64265;51.664;7.626;2023-08-17T05:09:59;23.60;99.90
2363;DHT22;64265;51.664;7.626;2023-08-17T05:12:26;23.60;99.90
2363;DHT22;64265;51.664;7.626;2023-08-17T05:14:53;23.60;99.90
2363;DHT22;64265;51.664;7.626;2023-08-17T05:17:19;23.60;99.90
2363;DHT22;64265;51.664;7.626;2023-08-17T05:19:47;23.60;99.90
2363;DHT22;64265;51.664;7.626;2023-08-17T05:22:14;23.60;99.90
2363;DHT22;64265;51.664;7.626;2023-08-17T05:24:41;23.60;99.90
2363;DHT22;64265;51.664;7.626;2023-08-17T05:27:08;23.60;99.90
2363;DHT22;64265;51.664;7.626;2023-08-17T05:29:35;23.50;99.90
2363;DHT22;64265;51.664;7.626;2023-08-17T05:32:02;23.60;99.90
2363;DHT22;64265;51.664;7.626;2023-08-17T05:34:28;23.60;99.90
2363;DHT22;64265;51.664;7.626;2023-08-17T05:36:56;23.60;99.90
2363;DHT22;64265;51.664;7.626;2023-08-17T05:39:23;23.60;99.90
2363;DHT22;64265;51.664;7.626;2023-08-17T05:41:50;23.50;99.90
2363;DHT22;64265;51.664;7.626;2023-08-17T05:44:17;23.60;99.90
2363;DHT22;64265;51.664;7.626;2023-08-17T05:46:44;23.60;99.90
2363;DHT22;64265;51.664;7.626;2023-08-17T05:49:11;23.60;99.90
2363;DHT22;64265;51.664;7.626;2023-08-17T05:51:37;23.50;99.90
2363;DHT22;64265;51.664;7.626;2023-08-17T05:54:06;23.50;99.90
2363;DHT22;64265;51.664;7.626;2023-08-17T05:56:32;23.50;99.90
2363;DHT22;64265;51.664;7.626;2023-08-17T05:58:59;23.50;99.90
2363;DHT22;64265;51.664;7.626;2023-08-17T06:01:26;23.50;99.90
2363;DHT22;64265;51.664;7.626;2023-08-17T06:03:53;23.50;99.90
2363;DHT22;64265;51.664;7.626;2023-08-17T06:06:20;23.50;99.90
2363;DHT22;64265;51.664;7.626;2023-08-17T06:08:46;23.50;99.90
2363;DHT22;64265;51.664;7.626;2023-08-17T06:11:14;23.50;99.90
2363;DHT22;64265;51.664;7.626;2023-08-17T06:13:41;23.50;99.90
2363;DHT22;64265;51.664;7.626;2023-08-17T06:16:08;23.50;99.90
2363;DHT22;64265;51.664;7.626;2023-08-17T06:18:36;23.50;99.90
2363;DHT22;64265;51.664;7.626;2023-08-17T06:21:03;23.40;99.90
2363;DHT22;64265;51.664;7.626;2023-08-17T06:23:30;23.40;99.90
2363;DHT22;64265;51.664;7.626;2023-08-17T06:25:57;23.40;99.90
2363;DHT22;64265;51.664;7.626;2023-08-17T06:28:25;23.40;99.90
2363;DHT22;64265;51.664;7.626;2023-08-17T06:30:52;23.40;99.90
2363;DHT22;64265;51.664;7.626;2023-08-17T06:33:19;23.40;99.90
2363;DHT22;64265;51.664;7.626;2023-08-17T06:35:46;23.40;99.90
2363;DHT22;64265;51.664;7.626;2023-08-17T06:38:13;23.40;99.90
2363;DHT22;64265;51.664;7.626;2023-08-17T06:40:40;23.40;99.90
2363;DHT22;64265;51.664;7.626;2023-08-17T06:43:06;23.40;99.90
2363;DHT22;64265;51.664;7.626;2023-08-17T06:45:35;23.40;99.90
2363;DHT22;64265;51.664;7.626;2023-08-17T06:48:01;23.40;99.90
2363;DHT22;64265;51.664;7.626;2023-08-17T06:50:28;23.30;99.90
2363;DHT22;64265;51.664;7.626;2023-08-17T06:52:55;23.30;99.90
2363;DHT22;64265;51.664;7.626;2023-08-17T06:55:22;23.30;99.90
2363;DHT22;64265;51.664;7.626;2023-08-17T06:57:48;23.30;99.90
2363;DHT22;64265;51.664;7.626;2023-08-17T07:00:17;23.30;99.90
2363;DHT22;64265;51.664;7.626;2023-08-17T07:02:47;23.30;99.90
2363;DHT22;64265;51.664;7.626;2023-08-17T07:05:14;23.30;99.90
2363;DHT22;64265;51.664;7.626;2023-08-17T07:07:41;23.30;99.90
2363;DHT22;64265;51.664;7.626;2023-08-17T07:10:09;23.30;99.90
2363;DHT22;64265;51.664;7.626;2023-08-17T07:12:36;23.30;99.90
2363;DHT22;64265;51.664;7.626;2023-08-17T07:15:03;23.30;99.90
2363;DHT22;64265;51.664;7.626;2023-08-17T07:17:30;23.30;99.90
2363;DHT22;64265;51.664;7.626;2023-08-17T07:19:58;23.20;99.90
2363;DHT22;64265;51.664;7.626;2023-08-17T07:22:24;23.20;99.90
2363;DHT22;64265;51.664;7.626;2023-08-17T07:24:51;23.20;99.90
2363;DHT22;64265;51.664;7.626;2023-08-17T07:27:18;23.20;99.90
2363;DHT22;64265;51.664;7.626;2023-08-17T07:29:45;23.20;99.90
2363;DHT22;64265;51.664;7.626;2023-08-17T07:32:11;23.20;99.90
2363;DHT22;64265;51.664;7.626;2023-08-17T07:34:38;23.20;99.90
2363;DHT22;64265;51.664;7.626;2023-08-17T07:37:06;23.10;99.90
2363;DHT22;64265;51.664;7.626;2023-08-17T07:39:33;23.10;99.90
2363;DHT22;64265;51.664;7.626;2023-08-17T07:41:59;23.10;99.90
2363;DHT22;64265;51.664;7.626;2023-08-17T07:44:26;23.10;99.90
2363;DHT22;64265;51.664;7.626;2023-08-17T07:46:54;23.10;99.90
2363;DHT22;64265;51.664;7.626;2023-08-17T07:49:20;23.00;99.90
2363;DHT22;64265;51.664;7.626;2023-08-17T07:51:48;23.00;99.90
2363;DHT22;64265;51.664;7.626;2023-08-17T07:54:16;23.00;99.90
2363;DHT22;64265;51.664;7.626;2023-08-17T07:56:43;23.00;99.90
2363;DHT22;64265;51.664;7.626;2023-08-17T07:59:11;23.00;99.90
2363;DHT22;64265;51.664;7.626;2023-08-17T08:01:37;22.90;99.90
2363;DHT22;64265;51.664;7.626;2023-08-17T08:04:05;22.90;99.90
2363;DHT22;64265;51.664;7.626;2023-08-17T08:06:32;22.80;99.90
2363;DHT22;64265;51.664;7.626;2023-08-17T08:08:59;22.80;99.90
2363;DHT22;64265;51.664;7.626;2023-08-17T08:11:27;22.80;99.90
2363;DHT22;64265;51.664;7.626;2023-08-17T08:13:56;22.80;99.90
2363;DHT22;64265;51.664;7.626;2023-08-17T08:16:22;22.80;99.90
2363;DHT22;64265;51.664;7.626;2023-08-17T08:18:49;22.80;99.90
2363;DHT22;64265;51.664;7.626;2023-08-17T08:21:16;22.80;99.90
2363;DHT22;64265;51.664;7.626;2023-08-17T08:23:43;22.70;99.90
2363;DHT22;64265;51.664;7.626;2023-08-17T08:26:09;22.70;99.90
2363;DHT22;64265;51.664;7.626;2023-08-17T08:28:37;22.70;99.90
2363;DHT22;64265;51.664;7.626;2023-08-17T08:31:04;22.70;99.90
2363;DHT22;64265;51.664;7.626;2023-08-17T08:33:31;22.80;99.90
2363;DHT22;64265;51.664;7.626;2023-08-17T08:35:58;22.70;99.90
2363;DHT22;64265;51.664;7.626;2023-08-17T08:38:24;22.80;99.90
2363;DHT22;64265;51.664;7.626;2023-08-17T08:40:51;22.70;99.90
2363;DHT22;64265;51.664;7.626;2023-08-17T08:43:18;22.80;99.90
2363;DHT22;64265;51.664;7.626;2023-08-17T08:45:47;22.80;99.90
2363;DHT22;64265;51.664;7.626;2023-08-17T08:48:15;22.80;99.90
2363;DHT22;64265;51.664;7.626;2023-08-17T08:50:45;22.80;99.90
2363;DHT22;64265;51.664;7.626;2023-08-17T08:53:14;22.80;99.90
2363;DHT22;64265;51.664;7.626;2023-08-17T08:55:45;22.70;99.90
2363;DHT22;64265;51.664;7.626;2023-08-17T08:58:15;22.70;99.90
2363;DHT22;64265;51.664;7.626;2023-08-17T09:00:46;22.70;99.90
2363;DHT22;64265;51.664;7.626;2023-08-17T09:03:15;22.70;99.90
2363;DHT22;64265;51.664;7.626;2023-08-17T09:05:44;22.70;99.90
2363;DHT22;64265;51.664;7.626;2023-08-17T09:08:12;22.70;99.90
2363;DHT22;64265;51.664;7.626;2023-08-17T09:10:39;22.70;99.90
2363;DHT22;64265;51.664;7.626;2023-08-17T09:13:07;22.60;99.90
2363;DHT22;64265;51.664;7.626;2023-08-17T09:15:34;22.60;99.90
2363;DHT22;64265;51.664;7.626;2023-08-17T09:18:03;22.60;99.90
2363;DHT22;64265;51.664;7.626;2023-08-17T09:20:37;22.60;99.90
2363;DHT22;64265;51.664;7.626;2023-08-17T09:23:09;22.60;99.90
2363;DHT22;64265;51.664;7.626;2023-08-17T09:25:38;22.50;99.90
2363;DHT22;64265;51.664;7.626;2023-08-17T09:28:07;22.50;99.90
2363;DHT22;64265;51.664;7.626;2023-08-17T09:30:52;22.50;99.90
2363;DHT22;64265;51.664;7.626;2023-08-17T09:33:20;22.50;99.90
2363;DHT22;64265;51.664;7.626;2023-08-17T09:35:49;22.50;99.90
2363;DHT22;64265;51.664;7.626;2023-08-17T09:38:16;22.40;99.90
2363;DHT22;64265;51.664;7.626;2023-08-17T09:40:43;22.50;99.90
2363;DHT22;64265;51.664;7.626;2023-08-17T09:43:10;22.40;99.90
2363;DHT22;64265;51.664;7.626;2023-08-17T09:45:37;22.40;99.90
2363;DHT22;64265;51.664;7.626;2023-08-17T09:48:05;22.40;99.90
2363;DHT22;64265;51.664;7.626;2023-08-17T09:50:32;22.40;99.90
2363;DHT22;64265;51.664;7.626;2023-08-17T09:53:01;22.40;99.90
2363;DHT22;64265;51.664;7.626;2023-08-17T09:55:30;22.40;99.90
2363;DHT22;64265;51.664;7.626;2023-08-17T09:57:58;22.40;99.90
2363;DHT22;64265;51.664;7.626;2023-08-17T10:00:25;22.40;99.90
2363;DHT22;64265;51.664;7.626;2023-08-17T10:02:53;22.40;99.90
2363;DHT22;64265;51.664;7.626;2023-08-17T10:05:22;22.40;99.90
2363;DHT22;64265;51.664;7.626;2023-08-17T10:07:53;22.40;99.90
2363;DHT22;64265;51.664;7.626;2023-08-17T10:10:25;22.40;99.90
2363;DHT22;64265;51.664;7.626;2023-08-17T10:12:58;22.40;99.90
2363;DHT22;64265;51.664;7.626;2023-08-17T10:15:29;22.40;99.90
2363;DHT22;64265;51.664;7.626;2023-08-17T10:18:02;22.40;99.90
2363;DHT22;64265;51.664;7.626;2023-08-17T10:20:34;22.40;99.90
2363;DHT22;64265;51.664;7.626;2023-08-17T10:23:07;22.40;99.90
2363;DHT22;64265;51.664;7.626;2023-08-17T10:25:38;22.40;99.90
2363;DHT22;64265;51.664;7.626;2023-08-17T10:28:06;22.50;99.90
2363;DHT22;64265;51.664;7.626;2023-08-17T10:30:34;22.50;99.90
2363;DHT22;64265;51.664;7.626;2023-08-17T10:33:01;22.50;99.90
2363;DHT22;64265;51.664;7.626;2023-08-17T10:35:29;22.50;99.90
2363;DHT22;64265;51.664;7.626;2023-08-17T10:37:56;22.60;99.90
2363;DHT22;64265;51.664;7.626;2023-08-17T10:40:27;22.60;99.90
2363;DHT22;64265;51.664;7.626;2023-08-17T10:42:55;22.60;99.90
2363;DHT22;64265;51.664;7.626;2023-08-17T10:45:28;22.60;99.90
2363;DHT22;64265;51.664;7.626;2023-08-17T10:48:27;22.60;99.90
2363;DHT22;64265;51.664;7.626;2023-08-17T10:51:04;22.70;99.90
2363;DHT22;64265;51.664;7.626;2023-08-17T10:53:37;22.70;99.90
2363;DHT22;64265;51.664;7.626;2023-08-17T10:56:11;22.70;99.90
2363;DHT22;64265;51.664;7.626;2023-08-17T10:58:41;22.70;99.90
2363;DHT22;64265;51.664;7.626;2023-08-17T11:01:08;22.70;99.90
2363;DHT22;64265;51.664;7.626;2023-08-17T11:03:35;22.70;99.90
2363;DHT22;64265;51.664;7.626;2023-08-17T11:06:16;22.80;99.90
2363;DHT22;64265;51.664;7.626;2023-08-17T11:08:54;22.80;99.90
2363;DHT22;64265;51.664;7.626;2023-08-17T11:11:22;22.80;99.90
2363;DHT22;64265;51.664;7.626;2023-08-17T11:13:52;22.80;99.90
2363;DHT22;64265;51.664;7.626;2023-08-17T11:16:19;22.80;99.90
2363;DHT22;64265;51.664;7.626;2023-08-17T11:18:46;22.80;99.90
2363;DHT22;64265;51.664;7.626;2023-08-17T11:21:15;22.80;99.90
2363;DHT22;64265;51.664;7.626;2023-08-17T11:23:43;22.90;99.90
2363;DHT22;64265;51.664;7.626;2023-08-17T11:26:10;22.90;99.90
2363;DHT22;64265;51.664;7.626;2023-08-17T11:28:37;22.90;99.90
2363;DHT22;64265;51.664;7.626;2023-08-17T11:31:09;23.00;99.90
2363;DHT22;64265;51.664;7.626;2023-08-17T11:33:37;23.00;99.90
2363;DHT22;64265;51.664;7.626;2023-08-17T11:36:05;23.00;99.90
2363;DHT22;64265;51.664;7.626;2023-08-17T11:38:33;23.00;99.90
2363;DHT22;64265;51.664;7.626;2023-08-17T11:41:02;23.00;99.90
2363;DHT22;64265;51.664;7.626;2023-08-17T11:43:30;23.00;99.90
2363;DHT22;64265;51.664;7.626;2023-08-17T11:45:57;23.00;99.90
2363;DHT22;64265;51.664;7.626;2023-08-17T11:48:25;23.00;99.90
2363;DHT22;64265;51.664;7.626;2023-08-17T11:50:52;23.00;99.90
2363;DHT22;64265;51.664;7.626;2023-08-17T11:53:20;23.10;99.90
2363;DHT22;64265;51.664;7.626;2023-08-17T11:55:47;23.10;99.90
2363;DHT22;64265;51.664;7.626;2023-08-17T11:58:14;23.10;99.90
2363;DHT22;64265;51.664;7.626;2023-08-17T12:00:43;23.10;99.90
2363;DHT22;64265;51.664;7.626;2023-08-17T12:03:13;23.20;99.90
2363;DHT22;64265;51.664;7.626;2023-08-17T12:05:43;23.20;99.90
2363;DHT22;64265;51.664;7.626;2023-08-17T12:08:10;23.20;99.90
2363;DHT22;64265;51.664;7.626;2023-08-17T12:10:39;23.20;99.90
2363;DHT22;64265;51.664;7.626;2023-08-17T12:13:06;23.20;99.90
2363;DHT22;64265;51.664;7.626;2023-08-17T12:15:33;23.30;99.90
2363;DHT22;64265;51.664;7.626;2023-08-17T12:18:02;23.20;99.90
2363;DHT22;64265;51.664;7.626;2023-08-17T12:20:32;23.20;99.90
2363;DHT22;64265;51.664;7.626;2023-08-17T12:23:02;23.30;99.90
2363;DHT22;64265;51.664;7.626;2023-08-17T12:25:29;23.30;99.90
2363;DHT22;64265;51.664;7.626;2023-08-17T12:27:58;23.30;99.90
2363;DHT22;64265;51.664;7.626;2023-08-17T12:30:26;23.30;99.90
2363;DHT22;64265;51.664;7.626;2023-08-17T12:32:53;23.30;99.90
2363;DHT22;64265;51.664;7.626;2023-08-17T12:35:20;23.40;99.90
2363;DHT22;64265;51.664;7.626;2023-08-17T12:37:48;23.40;99.90
2363;DHT22;64265;51.664;7.626;2023-08-17T12:40:16;23.40;99.90
2363;DHT22;64265;51.664;7.626;2023-08-17T12:42:43;23.40;99.90
2363;DHT22;64265;51.664;7.626;2023-08-17T12:45:10;23.40;99.90
2363;DHT22;64265;51.664;7.626;2023-08-17T12:47:37;23.50;99.90
2363;DHT22;64265;51.664;7.626;2023-08-17T12:50:04;23.40;99.90
2363;DHT22;64265;51.664;7.626;2023-08-17T12:52:31;23.50;99.90
2363;DHT22;64265;51.664;7.626;2023-08-17T12:54:58;23.50;99.90
2363;DHT22;64265;51.664;7.626;2023-08-17T12:57:26;23.50;99.90
2363;DHT22;64265;51.664;7.626;2023-08-17T12:59:53;23.50;99.90
2363;DHT22;64265;51.664;7.626;2023-08-17T13:02:20;23.50;99.90
2363;DHT22;64265;51.664;7.626;2023-08-17T13:04:47;23.50;99.90
2363;DHT22;64265;51.664;7.626;2023-08-17T13:07:14;23.50;99.90
2363;DHT22;64265;51.664;7.626;2023-08-17T13:09:41;23.50;99.90
2363;DHT22;64265;51.664;7.626;2023-08-17T13:12:08;23.50;99.90
2363;DHT22;64265;51.664;7.626;2023-08-17T13:14:36;23.50;99.90
2363;DHT22;64265;51.664;7.626;2023-08-17T13:17:03;23.50;99.90
2363;DHT22;64265;51.664;7.626;2023-08-17T13:19:30;23.50;99.90
2363;DHT22;64265;51.664;7.626;2023-08-17T13:21:56;23.50;99.90
2363;DHT22;64265;51.664;7.626;2023-08-17T13:24:23;23.50;99.90
2363;DHT22;64265;51.664;7.626;2023-08-17T13:26:50;23.50;99.90
2363;DHT22;64265;51.664;7.626;2023-08-17T13:29:19;23.50;99.90
2363;DHT22;64265;51.664;7.626;2023-08-17T13:31:48;23.50;99.90
2363;DHT22;64265;51.664;7.626;2023-08-17T13:34:15;23.60;99.90
2363;DHT22;64265;51.664;7.626;2023-08-17T13:36:41;23.50;99.90
2363;DHT22;64265;51.664;7.626;2023-08-17T13:39:08;23.50;99.90
2363;DHT22;64265;51.664;7.626;2023-08-17T13:41:35;23.50;99.90
2363;DHT22;64265;51.664;7.626;2023-08-17T13:44:02;23.50;99.90
2363;DHT22;64265;51.664;7.626;2023-08-17T13:46:30;23.50;99.90
2363;DHT22;64265;51.664;7.626;2023-08-17T13:48:58;23.50;99.90
2363;DHT22;64265;51.664;7.626;2023-08-17T13:51:25;23.50;99.90
2363;DHT22;64265;51.664;7.626;2023-08-17T13:53:52;23.50;99.90
2363;DHT22;64265;51.664;7.626;2023-08-17T13:56:18;23.50;99.90
2363;DHT22;64265;51.664;7.626;2023-08-17T13:58:45;23.60;99.90
2363;DHT22;64265;51.664;7.626;2023-08-17T14:01:12;23.50;99.90
2363;DHT22;64265;51.664;7.626;2023-08-17T14:03:39;23.50;99.90
2363;DHT22;64265;51.664;7.626;2023-08-17T14:06:09;23.50;99.90
2363;DHT22;64265;51.664;7.626;2023-08-17T14:08:36;23.50;99.90
2363;DHT22;64265;51.664;7.626;2023-08-17T14:11:02;23.50;99.90
2363;DHT22;64265;51.664;7.626;2023-08-17T14:13:29;23.50;99.90
2363;DHT22;64265;51.664;7.626;2023-08-17T14:15:56;23.50;99.90
2363;DHT22;64265;51.664;7.626;2023-08-17T14:18:25;23.50;99.90
2363;DHT22;64265;51.664;7.626;2023-08-17T14:20:51;23.50;99.90
2363;DHT22;64265;51.664;7.626;2023-08-17T14:23:23;23.50;99.90
2363;DHT22;64265;51.664;7.626;2023-08-17T14:25:50;23.50;99.90
2363;DHT22;64265;51.664;7.626;2023-08-17T14:28:23;23.50;99.90
2363;DHT22;64265;51.664;7.626;2023-08-17T14:31:07;23.60;99.90
2363;DHT22;64265;51.664;7.626;2023-08-17T14:33:48;23.50;99.90
2363;DHT22;64265;51.664;7.626;2023-08-17T14:36:22;23.50;99.90
2363;DHT22;64265;51.664;7.626;2023-08-17T14:38:53;23.50;99.90
2363;DHT22;64265;51.664;7.626;2023-08-17T14:41:20;23.50;99.90
2363;DHT22;64265;51.664;7.626;2023-08-17T14:43:47;23.60;99.90
2363;DHT22;64265;51.664;7.626;2023-08-17T14:46:14;23.60;99.90
2363;DHT22;64265;51.664;7.626;2023-08-17T14:48:44;23.50;99.90
2363;DHT22;64265;51.664;7.626;2023-08-17T14:51:11;23.50;99.90
2363;DHT22;64265;51.664;7.626;2023-08-17T14:53:38;23.60;99.90
2363;DHT22;64265;51.664;7.626;2023-08-17T14:56:07;23.60;99.90
2363;DHT22;64265;51.664;7.626;2023-08-17T14:58:33;23.60;99.90
2363;DHT22;64265;51.664;7.626;2023-08-17T15:01:00;23.60;99.90
2363;DHT22;64265;51.664;7.626;2023-08-17T15:03:28;23.60;99.90
2363;DHT22;64265;51.664;7.626;2023-08-17T15:05:55;23.60;99.90
2363;DHT22;64265;51.664;7.626;2023-08-17T15:08:22;23.60;99.90
2363;DHT22;64265;51.664;7.626;2023-08-17T15:10:49;23.70;99.90
2363;DHT22;64265;51.664;7.626;2023-08-17T15:13:18;23.70;99.90
2363;DHT22;64265;51.664;7.626;2023-08-17T15:15:46;23.70;99.90
2363;DHT22;64265;51.664;7.626;2023-08-17T15:18:13;23.70;99.90
2363;DHT22;64265;51.664;7.626;2023-08-17T15:20:42;23.70;99.90
2363;DHT22;64265;51.664;7.626;2023-08-17T15:23:10;23.80;99.90
2363;DHT22;64265;51.664;7.626;2023-08-17T15:25:39;23.80;99.90
2363;DHT22;64265;51.664;7.626;2023-08-17T15:28:14;23.80;99.90
2363;DHT22;64265;51.664;7.626;2023-08-17T15:30:42;23.80;99.90
2363;DHT22;64265;51.664;7.626;2023-08-17T15:33:10;23.80;99.90
2363;DHT22;64265;51.664;7.626;2023-08-17T15:35:37;23.80;99.90
2363;DHT22;64265;51.664;7.626;2023-08-17T15:38:04;23.90;99.90
2363;DHT22;64265;51.664;7.626;2023-08-17T15:40:30;23.90;99.90
2363;DHT22;64265;51.664;7.626;2023-08-17T15:42:58;23.90;99.90
2363;DHT22;64265;51.664;7.626;2023-08-17T15:45:24;23.90;99.90
2363;DHT22;64265;51.664;7.626;2023-08-17T15:47:52;23.90;99.90
2363;DHT22;64265;51.664;7.626;2023-08-17T15:50:19;24.00;99.90